Time;durP1;ratioP1;P1;durP2;ratioP2;P2;SDS_P1;SDS_P2;PMS_P1;PMS_P2;Temp;Humidity;BMP_temperature;BMP_pressure;BME280_temperature;BME280_humidity;BME280_pressure;Samples;Min_cycle;Max_cycle;Signal;HPM_P1;HPM_P2
2022/12/19 00:00:59;;;;;;;178.20;57.60;;;;;;;;;;4966170;28;20026;-55
2022/12/19 00:03:24;;;;;;;162.57;53.60;;;;;;;;;;4974412;28;20026;-54
2022/12/19 00:05:49;;;;;;;163.00;55.25;;;;;;;;;;4984718;28;20039;-55
2022/12/19 00:08:17;;;;;;;149.77;51.20;;;;;;;;;;4975052;28;20049;-55
2022/12/19 00:10:43;;;;;;;153.65;48.42;;;;;;;;;;4980455;28;20018;-54
2022/12/19 00:13:08;;;;;;;143.77;50.08;;;;;;;;;;4964127;28;20034;-54
2022/12/19 00:15:33;;;;;;;143.30;48.13;;;;;;;;;;4984305;28;20137;-55
2022/12/19 00:17:59;;;;;;;125.18;44.55;;;;;;;;;;4978992;28;20086;-58
2022/12/19 00:20:24;;;;;;;134.95;47.03;;;;;;;;;;4974483;28;20027;-54
2022/12/19 00:22:49;;;;;;;142.85;48.90;;;;;;;;;;4981103;28;20030;-56
2022/12/19 00:25:14;;;;;;;130.95;45.58;;;;;;;;;;4977080;28;20137;-56
2022/12/19 00:27:40;;;;;;;134.95;45.55;;;;;;;;;;4971510;28;20055;-55
2022/12/19 00:30:05;;;;;;;131.88;44.63;;;;;;;;;;4974733;28;20070;-57
2022/12/19 00:32:30;;;;;;;141.20;45.75;;;;;;;;;;4982807;28;20476;-56
2022/12/19 00:34:56;;;;;;;127.45;42.25;;;;;;;;;;4984147;28;20027;-55
2022/12/19 00:37:21;;;;;;;128.20;43.30;;;;;;;;;;4981768;28;20014;-55
2022/12/19 00:39:46;;;;;;;125.00;40.75;;;;;;;;;;4981779;28;20041;-55
2022/12/19 00:42:11;;;;;;;125.20;39.70;;;;;;;;;;4968387;28;20477;-55
2022/12/19 00:44:36;;;;;;;110.32;37.10;;;;;;;;;;4963608;28;20058;-56
2022/12/19 00:47:02;;;;;;;119.22;35.35;;;;;;;;;;4959814;28;20114;-56
2022/12/19 00:49:27;;;;;;;112.50;36.63;;;;;;;;;;4976601;28;20045;-56
2022/12/19 00:51:55;;;;;;;106.95;35.53;;;;;;;;;;4976430;28;21057;-55
2022/12/19 00:54:20;;;;;;;107.43;36.05;;;;;;;;;;4978179;28;20085;-61
2022/12/19 00:56:46;;;;;;;108.72;35.03;;;;;;;;;;4982386;28;20034;-56
2022/12/19 00:59:11;;;;;;;110.45;34.45;;;;;;;;;;4976831;28;20030;-56
2022/12/19 01:01:37;;;;;;;109.03;36.40;;;;;;;;;;4973323;28;20102;-54
2022/12/19 01:04:03;;;;;;;152.10;40.97;;;;;;;;;;4983196;28;20038;-56
2022/12/19 01:06:28;;;;;;;116.28;37.15;;;;;;;;;;4977295;28;20027;-55
2022/12/19 01:08:54;;;;;;;118.00;37.25;;;;;;;;;;4972265;28;20026;-54
2022/12/19 01:12:44;;;;;;;107.45;36.13;;;;;;;;;;4974033;28;20031;-56
2022/12/19 01:14:07;;;;;;;114.85;35.63;;;;;;;;;;4977412;28;20488;-55
2022/12/19 01:16:32;;;;;;;119.85;38.17;;;;;;;;;;4974431;28;20030;-56
2022/12/19 01:18:58;;;;;;;123.60;36.88;;;;;;;;;;4974132;28;20019;-55
2022/12/19 01:21:23;;;;;;;114.13;36.60;;;;;;;;;;4977624;28;21283;-55
2022/12/19 01:23:48;;;;;;;118.63;37.38;;;;;;;;;;4973314;28;20134;-57
2022/12/19 01:26:13;;;;;;;126.82;40.35;;;;;;;;;;4975446;28;20023;-55
2022/12/19 01:28:39;;;;;;;127.55;39.05;;;;;;;;;;4970393;28;20054;-54
2022/12/19 01:31:10;;;;;;;127.28;37.13;;;;;;;;;;4981035;28;20042;-58
2022/12/19 01:33:35;;;;;;;129.07;40.35;;;;;;;;;;4976495;28;20453;-54
2022/12/19 01:36:06;;;;;;;119.55;36.20;;;;;;;;;;4974391;28;20054;-54
2022/12/19 01:38:31;;;;;;;119.20;37.92;;;;;;;;;;4974901;28;20113;-56
2022/12/19 01:40:57;;;;;;;127.57;40.05;;;;;;;;;;4972380;28;20504;-54
2022/12/19 01:43:22;;;;;;;122.65;38.95;;;;;;;;;;4977814;28;20034;-56
2022/12/19 01:45:48;;;;;;;115.10;37.72;;;;;;;;;;4979672;28;20030;-55
2022/12/19 01:48:34;;;;;;;118.22;37.58;;;;;;;;;;4965065;28;20027;-56
2022/12/19 01:51:03;;;;;;;115.80;37.53;;;;;;;;;;4981044;28;20472;-56
2022/12/19 01:53:30;;;;;;;136.35;39.13;;;;;;;;;;4978063;28;20030;-56
2022/12/19 01:55:56;;;;;;;164.05;40.60;;;;;;;;;;4968576;28;20117;-56
2022/12/19 01:58:21;;;;;;;148.77;40.00;;;;;;;;;;4967031;28;20489;-56
2022/12/19 02:00:46;;;;;;;139.70;41.58;;;;;;;;;;4973352;28;20535;-56
2022/12/19 02:03:19;;;;;;;127.53;39.03;;;;;;;;;;4962387;28;20026;-57
2022/12/19 02:05:44;;;;;;;138.43;38.70;;;;;;;;;;4969893;28;20042;-55
2022/12/19 02:08:10;;;;;;;116.90;37.17;;;;;;;;;;4964247;28;20080;-55
2022/12/19 02:10:35;;;;;;;130.07;37.67;;;;;;;;;;4960015;28;20027;-57
2022/12/19 02:13:00;;;;;;;134.00;40.58;;;;;;;;;;4977136;28;20030;-54
2022/12/19 02:15:26;;;;;;;127.47;39.55;;;;;;;;;;4962911;28;20480;-56
2022/12/19 02:18:07;;;;;;;123.93;36.50;;;;;;;;;;4956824;28;20120;-55
2022/12/19 02:20:32;;;;;;;114.80;37.10;;;;;;;;;;4971817;28;20930;-55
2022/12/19 02:22:58;;;;;;;128.73;38.08;;;;;;;;;;4977050;28;20022;-56
2022/12/19 02:25:35;;;;;;;123.75;35.58;;;;;;;;;;4978519;28;20058;-56
2022/12/19 02:28:19;;;;;;;124.68;35.63;;;;;;;;;;4974795;28;20520;-56
2022/12/19 02:30:47;;;;;;;122.15;38.08;;;;;;;;;;4974624;28;20026;-55
2022/12/19 02:33:13;;;;;;;133.93;38.13;;;;;;;;;;4975672;28;20041;-55
2022/12/19 02:35:42;;;;;;;132.77;36.53;;;;;;;;;;4977664;28;20038;-56
2022/12/19 02:38:10;;;;;;;128.90;38.42;;;;;;;;;;4962677;28;20062;-56
2022/12/19 02:40:39;;;;;;;124.88;36.95;;;;;;;;;;4972712;28;20106;-56
2022/12/19 02:43:05;;;;;;;130.75;38.08;;;;;;;;;;4955643;28;20199;-56
2022/12/19 02:45:31;;;;;;;121.55;36.15;;;;;;;;;;4970153;28;20735;-56
2022/12/19 02:47:57;;;;;;;120.57;36.47;;;;;;;;;;4963677;28;20139;-56
2022/12/19 02:50:22;;;;;;;137.20;39.45;;;;;;;;;;4978513;28;20069;-56
2022/12/19 02:52:48;;;;;;;120.07;37.00;;;;;;;;;;4975713;28;20054;-56
2022/12/19 02:55:22;;;;;;;119.88;38.55;;;;;;;;;;4974023;28;20061;-56
2022/12/19 02:57:56;;;;;;;116.75;35.75;;;;;;;;;;4972808;28;20035;-53
2022/12/19 03:00:22;;;;;;;135.95;37.63;;;;;;;;;;4971476;28;20500;-55
2022/12/19 03:02:56;;;;;;;131.80;38.83;;;;;;;;;;4942703;28;20042;-55
2022/12/19 03:05:32;;;;;;;133.43;37.17;;;;;;;;;;4968680;28;20575;-56
2022/12/19 03:08:05;;;;;;;138.02;39.67;;;;;;;;;;4959251;28;20026;-57
2022/12/19 03:10:33;;;;;;;122.97;36.60;;;;;;;;;;4970580;28;20042;-56
2022/12/19 03:13:01;;;;;;;134.60;37.72;;;;;;;;;;4978196;28;20073;-56
2022/12/19 03:15:26;;;;;;;156.95;43.72;;;;;;;;;;4961195;28;20061;-56
2022/12/19 03:17:54;;;;;;;131.35;39.13;;;;;;;;;;4951590;28;20035;-56
2022/12/19 03:20:19;;;;;;;131.75;40.45;;;;;;;;;;4960379;28;20145;-56
2022/12/19 03:22:45;;;;;;;144.88;40.75;;;;;;;;;;4971873;28;20118;-56
2022/12/19 03:25:10;;;;;;;142.05;39.10;;;;;;;;;;4950219;28;20133;-54
2022/12/19 03:27:35;;;;;;;138.52;40.17;;;;;;;;;;4971149;28;20465;-55
2022/12/19 03:30:12;;;;;;;148.40;39.38;;;;;;;;;;4958633;28;20035;-55
2022/12/19 03:32:38;;;;;;;124.15;36.45;;;;;;;;;;4982397;28;20037;-56
2022/12/19 03:35:11;;;;;;;142.25;40.28;;;;;;;;;;4962389;28;20070;-55
2022/12/19 03:37:37;;;;;;;142.07;39.75;;;;;;;;;;4962305;28;20027;-53
2022/12/19 03:40:05;;;;;;;135.68;41.38;;;;;;;;;;4954566;28;20037;-55
2022/12/19 03:45:15;;;;;;;147.85;40.72;;;;;;;;;;4961402;28;20041;-57
2022/12/19 03:47:43;;;;;;;141.27;41.25;;;;;;;;;;4973914;28;20105;-53
2022/12/19 03:50:08;;;;;;;159.40;41.53;;;;;;;;;;4974545;28;20026;-55
2022/12/19 03:52:47;;;;;;;157.73;40.42;;;;;;;;;;4963228;28;20038;-54
2022/12/19 03:55:17;;;;;;;165.07;43.00;;;;;;;;;;4959428;28;20022;-54
2022/12/19 03:58:03;;;;;;;148.68;39.25;;;;;;;;;;4960718;28;20081;-55
2022/12/19 04:00:29;;;;;;;148.65;40.30;;;;;;;;;;4952856;28;20033;-56
2022/12/19 04:02:54;;;;;;;132.20;38.83;;;;;;;;;;4954747;28;20027;-57
2022/12/19 04:05:20;;;;;;;144.93;40.33;;;;;;;;;;4971310;28;20386;-54
2022/12/19 04:07:45;;;;;;;141.48;38.38;;;;;;;;;;4976803;28;20057;-55
2022/12/19 04:10:11;;;;;;;149.25;41.15;;;;;;;;;;4965449;28;20022;-55
2022/12/19 04:12:40;;;;;;;138.13;39.53;;;;;;;;;;4962785;28;20081;-54
2022/12/19 04:15:06;;;;;;;137.02;39.35;;;;;;;;;;4955351;28;20037;-54
2022/12/19 04:17:31;;;;;;;148.98;39.33;;;;;;;;;;4975822;28;20365;-54
2022/12/19 04:20:04;;;;;;;146.30;40.38;;;;;;;;;;4969852;28;20055;-57
2022/12/19 04:22:37;;;;;;;138.35;38.35;;;;;;;;;;4974089;28;20022;-57
2022/12/19 04:25:03;;;;;;;147.45;39.95;;;;;;;;;;4959851;28;20047;-56
2022/12/19 04:27:31;;;;;;;127.25;37.25;;;;;;;;;;4975168;28;20836;-55
2022/12/19 04:29:57;;;;;;;152.63;40.53;;;;;;;;;;4976192;28;20716;-55
2022/12/19 04:32:22;;;;;;;159.65;39.95;;;;;;;;;;4962936;28;20129;-55
2022/12/19 04:34:47;;;;;;;148.80;39.60;;;;;;;;;;4957373;28;20055;-56
2022/12/19 04:37:13;;;;;;;156.35;43.00;;;;;;;;;;4962682;28;20034;-55
2022/12/19 04:39:38;;;;;;;137.25;41.33;;;;;;;;;;4949732;28;20046;-57
2022/12/19 04:42:03;;;;;;;141.93;41.08;;;;;;;;;;4959757;28;20027;-56
2022/12/19 04:44:28;;;;;;;148.80;40.30;;;;;;;;;;4967878;28;20250;-55
2022/12/19 04:46:54;;;;;;;144.77;37.38;;;;;;;;;;4978346;28;20057;-57
2022/12/19 04:49:19;;;;;;;164.95;43.25;;;;;;;;;;4976426;28;20065;-55
2022/12/19 04:51:44;;;;;;;160.20;39.90;;;;;;;;;;4978825;28;20038;-56
2022/12/19 04:54:10;;;;;;;138.82;37.92;;;;;;;;;;4979607;28;20038;-55
2022/12/19 04:56:35;;;;;;;157.65;40.42;;;;;;;;;;4978743;28;20023;-55
2022/12/19 04:59:00;;;;;;;152.45;41.22;;;;;;;;;;4978517;28;20046;-54
2022/12/19 05:01:25;;;;;;;145.20;39.38;;;;;;;;;;4984961;28;20558;-55
2022/12/19 05:03:51;;;;;;;158.85;41.88;;;;;;;;;;4982236;28;20492;-56
2022/12/19 05:06:16;;;;;;;156.43;39.55;;;;;;;;;;4970794;28;20064;-55
2022/12/19 05:08:42;;;;;;;162.25;43.67;;;;;;;;;;4975757;28;20089;-55
2022/12/19 05:11:07;;;;;;;165.38;41.75;;;;;;;;;;4978932;28;20518;-56
2022/12/19 05:13:32;;;;;;;139.45;38.95;;;;;;;;;;4979339;28;20597;-55
2022/12/19 05:15:58;;;;;;;143.93;39.53;;;;;;;;;;4979875;28;20038;-56
2022/12/19 05:18:24;;;;;;;158.77;40.28;;;;;;;;;;4974342;28;20034;-55
2022/12/19 05:20:49;;;;;;;160.73;40.28;;;;;;;;;;4973620;28;20072;-55
2022/12/19 05:23:14;;;;;;;151.98;39.03;;;;;;;;;;4980326;28;20056;-56
2022/12/19 05:25:39;;;;;;;153.73;40.70;;;;;;;;;;4975350;28;20063;-56
2022/12/19 05:28:05;;;;;;;158.43;41.85;;;;;;;;;;4984140;28;20084;-56
2022/12/19 05:30:30;;;;;;;159.52;39.63;;;;;;;;;;4978333;28;20046;-56
2022/12/19 05:32:55;;;;;;;160.73;42.28;;;;;;;;;;4981645;28;20038;-56
2022/12/19 05:35:20;;;;;;;148.73;41.30;;;;;;;;;;4972318;28;20508;-55
2022/12/19 05:37:46;;;;;;;163.57;42.20;;;;;;;;;;4982951;28;20030;-55
2022/12/19 05:40:11;;;;;;;170.85;43.90;;;;;;;;;;4986565;28;20068;-54
2022/12/19 05:42:37;;;;;;;158.50;42.55;;;;;;;;;;4966389;28;20410;-55
2022/12/19 05:45:02;;;;;;;172.82;42.53;;;;;;;;;;4977446;28;20049;-54
2022/12/19 05:47:27;;;;;;;146.73;41.72;;;;;;;;;;4976792;28;20137;-55
2022/12/19 05:49:52;;;;;;;170.98;39.70;;;;;;;;;;4978383;28;20069;-57
2022/12/19 05:52:20;;;;;;;152.55;40.85;;;;;;;;;;4986631;28;20068;-56
2022/12/19 05:54:46;;;;;;;160.95;43.08;;;;;;;;;;4971689;28;20078;-55
2022/12/19 05:57:11;;;;;;;181.23;48.58;;;;;;;;;;4978412;28;20034;-56
2022/12/19 05:59:36;;;;;;;137.60;34.45;;;;;;;;;;4983025;28;20042;-54
2022/12/19 06:02:01;;;;;;;174.05;44.40;;;;;;;;;;4981606;28;20597;-56
2022/12/19 06:04:28;;;;;;;158.80;42.25;;;;;;;;;;4979758;28;20402;-55
2022/12/19 06:06:53;;;;;;;171.68;47.30;;;;;;;;;;4984114;28;20035;-56
2022/12/19 06:09:18;;;;;;;153.18;42.50;;;;;;;;;;4984904;28;20113;-57
2022/12/19 06:11:44;;;;;;;149.95;40.72;;;;;;;;;;4989923;28;20044;-55
2022/12/19 06:14:09;;;;;;;158.05;44.17;;;;;;;;;;4982503;28;20120;-54
2022/12/19 06:16:34;;;;;;;156.77;40.03;;;;;;;;;;4991687;28;20032;-55
2022/12/19 06:18:59;;;;;;;157.63;43.03;;;;;;;;;;4984004;28;20030;-55
2022/12/19 06:21:25;;;;;;;169.18;42.53;;;;;;;;;;4984908;28;20430;-55
2022/12/19 06:23:50;;;;;;;157.38;41.40;;;;;;;;;;4969277;28;20413;-54
2022/12/19 06:26:16;;;;;;;169.65;48.55;;;;;;;;;;4970292;28;20041;-54
2022/12/19 06:28:41;;;;;;;129.85;37.65;;;;;;;;;;4989969;28;20176;-55
2022/12/19 06:31:06;;;;;;;144.77;39.17;;;;;;;;;;4979445;28;20481;-53
2022/12/19 06:33:32;;;;;;;173.43;47.67;;;;;;;;;;4987747;28;20675;-55
2022/12/19 06:35:58;;;;;;;138.25;39.38;;;;;;;;;;4977941;28;20062;-55
2022/12/19 06:38:23;;;;;;;160.77;41.67;;;;;;;;;;4983909;28;20045;-55
2022/12/19 06:43:32;;;;;;;148.98;41.83;;;;;;;;;;4989847;28;20245;-55
2022/12/19 06:45:57;;;;;;;136.40;41.45;;;;;;;;;;4979350;28;20135;-55
2022/12/19 06:48:23;;;;;;;144.07;44.88;;;;;;;;;;4984057;28;20030;-54
2022/12/19 06:50:48;;;;;;;128.48;40.55;;;;;;;;;;4972378;28;20116;-55
2022/12/19 06:53:13;;;;;;;119.00;34.28;;;;;;;;;;4968618;28;20345;-55
2022/12/19 06:55:38;;;;;;;123.32;42.80;;;;;;;;;;4974181;28;20031;-54
2022/12/19 06:58:04;;;;;;;110.53;34.05;;;;;;;;;;4981272;28;20300;-55
2022/12/19 07:00:29;;;;;;;120.72;35.42;;;;;;;;;;4972620;28;20030;-54
2022/12/19 07:02:54;;;;;;;105.60;34.15;;;;;;;;;;4973070;28;20464;-52
2022/12/19 07:05:20;;;;;;;105.03;32.63;;;;;;;;;;4982748;28;20479;-52
2022/12/19 07:07:45;;;;;;;109.50;33.85;;;;;;;;;;4963574;28;20388;-54
2022/12/19 07:10:10;;;;;;;109.00;33.60;;;;;;;;;;4966481;28;20026;-54
2022/12/19 07:12:35;;;;;;;120.85;35.10;;;;;;;;;;4984773;28;20026;-55
2022/12/19 07:15:01;;;;;;;112.10;35.17;;;;;;;;;;4989644;28;20178;-55
2022/12/19 07:17:26;;;;;;;90.03;29.10;;;;;;;;;;4985024;28;20033;-53
2022/12/19 07:19:55;;;;;;;102.20;31.77;;;;;;;;;;4967672;28;20101;-54
2022/12/19 07:22:20;;;;;;;91.15;33.10;;;;;;;;;;4971179;28;20137;-55
2022/12/19 07:24:45;;;;;;;92.80;33.13;;;;;;;;;;4982152;28;20149;-56
2022/12/19 07:27:10;;;;;;;82.13;29.98;;;;;;;;;;4977469;28;20030;-55
2022/12/19 07:29:36;;;;;;;95.10;30.77;;;;;;;;;;4964046;28;20026;-55
2022/12/19 07:32:01;;;;;;;86.97;30.33;;;;;;;;;;4976598;28;20443;-55
2022/12/19 07:34:26;;;;;;;89.40;32.28;;;;;;;;;;4981697;28;20393;-56
2022/12/19 07:36:51;;;;;;;74.18;28.92;;;;;;;;;;4974458;28;20455;-55
2022/12/19 07:39:17;;;;;;;77.82;28.45;;;;;;;;;;4985442;28;20424;-56
2022/12/19 07:41:42;;;;;;;85.82;34.25;;;;;;;;;;4970810;28;20026;-55
2022/12/19 07:44:08;;;;;;;73.40;28.90;;;;;;;;;;4978784;28;20073;-52
2022/12/19 07:46:33;;;;;;;88.55;30.83;;;;;;;;;;4975225;28;20030;-55
2022/12/19 07:48:58;;;;;;;101.47;32.15;;;;;;;;;;4974214;28;20038;-54
2022/12/19 07:51:23;;;;;;;83.00;30.23;;;;;;;;;;4981278;28;20025;-53
2022/12/19 07:53:49;;;;;;;85.32;30.38;;;;;;;;;;4939711;28;20033;-55
2022/12/19 07:56:14;;;;;;;72.50;28.65;;;;;;;;;;4979003;28;20019;-56
2022/12/19 07:58:40;;;;;;;77.30;29.20;;;;;;;;;;4981774;28;20028;-56
2022/12/19 08:01:05;;;;;;;86.38;29.55;;;;;;;;;;4967175;28;20108;-55
2022/12/19 08:03:31;;;;;;;72.13;28.73;;;;;;;;;;4958595;28;20180;-55
2022/12/19 08:05:59;;;;;;;73.85;27.15;;;;;;;;;;4976738;28;20049;-54
2022/12/19 08:08:25;;;;;;;78.30;28.98;;;;;;;;;;4972643;28;20031;-54
2022/12/19 08:10:50;;;;;;;55.85;22.35;;;;;;;;;;4977913;28;20041;-55
2022/12/19 08:13:15;;;;;;;48.97;21.73;;;;;;;;;;4983197;28;20030;-55
2022/12/19 08:15:40;;;;;;;57.22;20.52;;;;;;;;;;4980195;28;20113;-52
2022/12/19 08:18:06;;;;;;;65.43;26.48;;;;;;;;;;4975139;28;20019;-54
2022/12/19 08:20:31;;;;;;;48.80;17.55;;;;;;;;;;4978898;28;20041;-55
2022/12/19 08:22:56;;;;;;;62.75;24.20;;;;;;;;;;4981675;28;20026;-53
2022/12/19 08:25:22;;;;;;;67.90;26.42;;;;;;;;;;4979023;28;20169;-54
2022/12/19 08:27:47;;;;;;;57.33;25.15;;;;;;;;;;4974465;28;20060;-57
2022/12/19 08:30:13;;;;;;;57.05;24.52;;;;;;;;;;4963806;28;20088;-58
2022/12/19 08:32:38;;;;;;;68.10;24.52;;;;;;;;;;4980898;28;20400;-54
2022/12/19 08:35:05;;;;;;;60.83;26.73;;;;;;;;;;4972267;28;20031;-55
2022/12/19 08:37:30;;;;;;;53.67;21.95;;;;;;;;;;4975713;28;20523;-56
2022/12/19 08:39:55;;;;;;;51.22;22.05;;;;;;;;;;4979871;28;20030;-55
2022/12/19 08:42:21;;;;;;;58.50;25.45;;;;;;;;;;4974637;28;20476;-55
2022/12/19 08:44:46;;;;;;;64.80;23.80;;;;;;;;;;4980081;28;20046;-57
2022/12/19 08:47:12;;;;;;;44.88;18.98;;;;;;;;;;4973061;28;20469;-55
2022/12/19 08:49:37;;;;;;;63.97;25.63;;;;;;;;;;4979437;28;20448;-55
2022/12/19 08:52:02;;;;;;;50.45;23.50;;;;;;;;;;4965714;28;20058;-55
2022/12/19 08:54:28;;;;;;;50.95;22.98;;;;;;;;;;4986194;28;20113;-55
2022/12/19 08:56:53;;;;;;;51.78;22.15;;;;;;;;;;4988615;28;20026;-56
2022/12/19 08:59:19;;;;;;;33.42;15.30;;;;;;;;;;4983201;28;20448;-55
2022/12/19 09:01:44;;;;;;;56.85;24.52;;;;;;;;;;4981486;28;20019;-55
2022/12/19 09:04:09;;;;;;;43.92;18.42;;;;;;;;;;4973179;28;20112;-55
2022/12/19 09:06:35;;;;;;;54.40;22.88;;;;;;;;;;4975688;28;20467;-56
2022/12/19 09:09:01;;;;;;;60.38;26.25;;;;;;;;;;4971820;28;20026;-56
2022/12/19 09:11:26;;;;;;;46.67;22.15;;;;;;;;;;4987848;28;20026;-54
2022/12/19 09:13:52;;;;;;;53.50;22.92;;;;;;;;;;4987972;28;20034;-58
2022/12/19 09:16:18;;;;;;;45.20;20.85;;;;;;;;;;4964921;28;20211;-56
2022/12/19 09:18:43;;;;;;;45.70;20.05;;;;;;;;;;4986009;28;20373;-55
2022/12/19 09:21:08;;;;;;;52.35;20.90;;;;;;;;;;4989251;28;20033;-58
2022/12/19 09:23:34;;;;;;;45.75;22.92;;;;;;;;;;4987977;28;20049;-57
2022/12/19 09:26:03;;;;;;;48.55;22.95;;;;;;;;;;4983602;28;20169;-58
2022/12/19 09:28:29;;;;;;;46.90;21.27;;;;;;;;;;4985636;28;20104;-57
2022/12/19 09:30:58;;;;;;;46.80;21.25;;;;;;;;;;4982427;28;20178;-56
2022/12/19 09:33:23;;;;;;;49.58;21.67;;;;;;;;;;4974322;28;20031;-57
2022/12/19 09:35:52;;;;;;;98.22;36.95;;;;;;;;;;4975826;28;20154;-56
2022/12/19 09:38:18;;;;;;;52.78;24.58;;;;;;;;;;4977156;28;20469;-56
2022/12/19 09:40:50;;;;;;;50.97;25.60;;;;;;;;;;4968790;28;20038;-56
2022/12/19 09:43:36;;;;;;;58.55;27.33;;;;;;;;;;4972559;28;20538;-59
2022/12/19 09:46:10;;;;;;;68.03;31.05;;;;;;;;;;4969992;28;20121;-55
2022/12/19 09:48:35;;;;;;;52.65;27.05;;;;;;;;;;4978270;28;20014;-55
2022/12/19 09:51:30;;;;;;;50.45;25.67;;;;;;;;;;4975564;28;20397;-56
2022/12/19 09:54:00;;;;;;;45.83;20.40;;;;;;;;;;4961073;28;20036;-57
2022/12/19 09:56:26;;;;;;;;;;;;;;;;;;4966289;28;20109;-56
2022/12/19 09:58:52;;;;;;;45.65;23.42;;;;;;;;;;4974520;28;19996;-56
2022/12/19 10:01:26;;;;;;;43.47;19.55;;;;;;;;;;4964043;28;20127;-57
2022/12/19 10:04:10;;;;;;;45.58;21.30;;;;;;;;;;4972550;28;20089;-57
2022/12/19 10:06:36;;;;;;;37.40;18.13;;;;;;;;;;4963160;28;20034;-56
2022/12/19 10:09:01;;;;;;;46.75;20.98;;;;;;;;;;4965152;28;20030;-56
2022/12/19 10:11:31;;;;;;;37.92;17.80;;;;;;;;;;4969609;28;20038;-56
2022/12/19 10:14:15;;;;;;;42.58;18.52;;;;;;;;;;4976131;28;20038;-54
2022/12/19 10:16:59;;;;;;;51.83;23.00;;;;;;;;;;4979727;28;20122;-56
2022/12/19 10:19:43;;;;;;;48.22;22.00;;;;;;;;;;4968363;28;20022;-58
2022/12/19 10:22:14;;;;;;;43.85;20.38;;;;;;;;;;4983452;28;20040;-58
2022/12/19 10:24:51;;;;;;;46.83;21.08;;;;;;;;;;4932889;28;20051;-57
2022/12/19 10:27:37;;;;;;;46.92;24.48;;;;;;;;;;4949411;28;20511;-57
2022/12/19 10:30:17;;;;;;;44.50;21.08;;;;;;;;;;4934354;28;20079;-57
2022/12/19 10:33:01;;;;;;;60.58;29.85;;;;;;;;;;4938641;28;20123;-57
2022/12/19 10:35:31;;;;;;;52.55;22.73;;;;;;;;;;4933179;28;20513;-59
2022/12/19 10:38:07;;;;;;;44.75;20.95;;;;;;;;;;4940693;28;20028;-59
2022/12/19 10:40:33;;;;;;;42.33;19.90;;;;;;;;;;4948612;28;20032;-57
2022/12/19 10:42:59;;;;;;;45.42;18.88;;;;;;;;;;4932578;29;20377;-57
2022/12/19 10:45:27;;;;;;;38.38;19.50;;;;;;;;;;4926749;28;20149;-57
2022/12/19 10:47:55;;;;;;;42.63;19.90;;;;;;;;;;4941109;28;20414;-56
2022/12/19 10:50:21;;;;;;;39.70;18.38;;;;;;;;;;4932232;28;20035;-57
2022/12/19 10:53:09;;;;;;;41.78;18.63;;;;;;;;;;4936193;28;20027;-57
2022/12/19 10:55:48;;;;;;;46.35;19.90;;;;;;;;;;4937886;28;20031;-58
2022/12/19 10:58:17;;;;;;;37.20;19.15;;;;;;;;;;4933515;29;20101;-56
2022/12/19 11:01:06;;;;;;;42.90;19.85;;;;;;;;;;4934120;28;20051;-56
2022/12/19 11:03:32;;;;;;;40.30;19.15;;;;;;;;;;4901177;28;20370;-59
2022/12/19 11:05:57;;;;;;;36.55;18.35;;;;;;;;;;4932635;29;20047;-58
2022/12/19 11:08:26;;;;;;;41.60;19.85;;;;;;;;;;4936964;28;20019;-59
2022/12/19 11:10:55;;;;;;;39.85;19.00;;;;;;;;;;4936861;28;20042;-57
2022/12/19 11:13:23;;;;;;;43.20;19.48;;;;;;;;;;4940176;28;20355;-57
2022/12/19 11:15:50;;;;;;;37.58;18.38;;;;;;;;;;4933284;28;20035;-58
2022/12/19 11:18:15;;;;;;;37.70;19.35;;;;;;;;;;4930950;28;20081;-58
2022/12/19 11:20:45;;;;;;;41.72;19.85;;;;;;;;;;4942245;28;20479;-59
2022/12/19 11:23:11;;;;;;;42.13;18.45;;;;;;;;;;4938484;28;20046;-59
2022/12/19 11:25:39;;;;;;;50.78;22.77;;;;;;;;;;4965533;28;20038;-57
2022/12/19 11:28:06;;;;;;;42.40;22.00;;;;;;;;;;4978999;28;20134;-57
2022/12/19 11:30:31;;;;;;;37.50;18.75;;;;;;;;;;4967730;28;20033;-57
2022/12/19 11:33:13;;;;;;;40.75;19.17;;;;;;;;;;4965089;28;20456;-57
2022/12/19 11:35:58;;;;;;;35.03;17.33;;;;;;;;;;4980993;28;20425;-57
2022/12/19 11:38:39;;;;;;;39.13;21.73;;;;;;;;;;4975077;28;20065;-57
2022/12/19 11:41:04;;;;;;;;;;;;;;;;;;4970663;28;20033;-56
2022/12/19 11:43:48;;;;;;;33.78;16.08;;;;;;;;;;4977362;28;19914;-56
2022/12/19 11:46:16;;;;;;;33.60;17.05;;;;;;;;;;4984719;28;20034;-56
2022/12/19 11:48:53;;;;;;;41.08;17.75;;;;;;;;;;4989381;28;20037;-56
2022/12/19 11:51:32;;;;;;;35.80;17.55;;;;;;;;;;4981370;28;20061;-57
2022/12/19 11:54:00;;;;;;;48.78;20.85;;;;;;;;;;4969877;28;20033;-56
2022/12/19 11:56:26;;;;;;;50.25;20.58;;;;;;;;;;4983082;28;20503;-57
2022/12/19 11:59:01;;;;;;;43.38;21.08;;;;;;;;;;4969543;28;20061;-57
2022/12/19 12:01:29;;;;;;;45.72;20.83;;;;;;;;;;4979699;28;20161;-57
2022/12/19 12:04:11;;;;;;;43.22;21.17;;;;;;;;;;4976295;28;20046;-57
2022/12/19 12:06:40;;;;;;;37.17;17.20;;;;;;;;;;4978110;28;20552;-56
2022/12/19 12:09:23;;;;;;;33.90;16.73;;;;;;;;;;4974830;28;20026;-58
2022/12/19 12:11:50;;;;;;;43.55;19.90;;;;;;;;;;4981968;28;20018;-59
2022/12/19 12:14:18;;;;;;;34.13;16.45;;;;;;;;;;4963869;28;20037;-57
2022/12/19 12:17:02;;;;;;;35.50;16.15;;;;;;;;;;4980558;28;20113;-57
2022/12/19 12:19:34;;;;;;;38.55;17.20;;;;;;;;;;4972061;28;20216;-58
2022/12/19 12:22:11;;;;;;;39.97;16.83;;;;;;;;;;4965955;28;20025;-57
2022/12/19 12:24:39;;;;;;;36.38;16.20;;;;;;;;;;4979421;28;20051;-57
2022/12/19 12:27:14;;;;;;;31.67;16.05;;;;;;;;;;4976988;28;20034;-57
2022/12/19 12:29:51;;;;;;;33.50;16.33;;;;;;;;;;4979618;28;20047;-58
2022/12/19 12:32:20;;;;;;;36.13;17.02;;;;;;;;;;4973936;28;20038;-56
2022/12/19 12:34:54;;;;;;;31.42;16.25;;;;;;;;;;4968509;28;20025;-58
2022/12/19 12:37:35;;;;;;;42.67;16.40;;;;;;;;;;4960992;28;20018;-57
2022/12/19 12:40:00;;;;;;;;;;;;;;;;;;4975815;28;20022;-58
2022/12/19 12:42:28;;;;;;;33.13;14.80;;;;;;;;;;4974029;28;20624;-57
2022/12/19 12:44:54;;;;;;;34.28;16.90;;;;;;;;;;4980095;28;20104;-55
2022/12/19 12:47:21;;;;;;;35.00;17.20;;;;;;;;;;4967453;28;20532;-59
2022/12/19 12:49:46;;;;;;;36.92;17.08;;;;;;;;;;4972181;28;20105;-57
2022/12/19 12:52:15;;;;;;;38.45;16.50;;;;;;;;;;4976229;28;20105;-58
2022/12/19 12:54:41;;;;;;;35.53;17.13;;;;;;;;;;4966843;28;20453;-56
2022/12/19 12:57:14;;;;;;;41.25;16.92;;;;;;;;;;4962011;28;20508;-56
2022/12/19 12:59:42;;;;;;;33.30;17.02;;;;;;;;;;4966598;28;20026;-58
2022/12/19 13:02:13;;;;;;;36.38;18.05;;;;;;;;;;4964961;28;20030;-57
2022/12/19 13:04:42;;;;;;;37.38;18.25;;;;;;;;;;4972581;28;20639;-58
2022/12/19 13:07:27;;;;;;;36.72;18.65;;;;;;;;;;4983878;28;20479;-55
2022/12/19 13:09:53;;;;;;;35.95;15.75;;;;;;;;;;4979576;28;20050;-59
2022/12/19 13:15:33;;;;;;;34.05;16.55;;;;;;;;;;4975583;28;20049;-57
2022/12/19 13:18:08;;;;;;;28.23;13.88;;;;;;;;;;4985376;28;20036;-58
2022/12/19 13:20:46;;;;;;;34.97;17.60;;;;;;;;;;4976552;28;20324;-59
2022/12/19 13:23:40;;;;;;;29.25;16.17;;;;;;;;;;4982434;28;20023;-59
2022/12/19 13:26:20;;;;;;;33.80;16.15;;;;;;;;;;4962664;28;20110;-58
2022/12/19 13:28:45;;;;;;;37.00;17.93;;;;;;;;;;4966768;28;20485;-57
2022/12/19 13:31:10;;;;;;;37.67;19.33;;;;;;;;;;4985093;28;20038;-57
2022/12/19 13:33:45;;;;;;;37.00;18.33;;;;;;;;;;4993574;28;20495;-55
2022/12/19 13:36:29;;;;;;;36.20;19.60;;;;;;;;;;4976375;28;21499;-61
2022/12/19 13:38:54;;;;;;;34.65;17.80;;;;;;;;;;4978217;28;20393;-57
2022/12/19 13:44:10;;;;;;;38.40;17.60;;;;;;;;;;4973176;28;20049;-58
2022/12/19 13:46:40;;;;;;;37.75;18.00;;;;;;;;;;4976353;28;20030;-56
2022/12/19 13:49:25;;;;;;;35.75;17.80;;;;;;;;;;4981781;28;20503;-54
2022/12/19 13:51:51;;;;;;;38.30;17.73;;;;;;;;;;4984892;28;20031;-57
2022/12/19 13:54:21;;;;;;;34.88;17.50;;;;;;;;;;4971900;28;20026;-55
2022/12/19 13:56:47;;;;;;;60.47;36.88;;;;;;;;;;4983076;28;20464;-56
2022/12/19 13:59:12;;;;;;;41.50;21.60;;;;;;;;;;4980402;28;20023;-56
2022/12/19 14:01:37;;;;;;;37.47;17.67;;;;;;;;;;4982216;28;20205;-57
2022/12/19 14:04:03;;;;;;;37.03;17.15;;;;;;;;;;4965891;28;20101;-56
2022/12/19 14:06:29;;;;;;;33.20;16.90;;;;;;;;;;4966929;28;20025;-57
2022/12/19 14:08:59;;;;;;;32.58;15.70;;;;;;;;;;4986275;28;20030;-56
2022/12/19 14:11:25;;;;;;;30.02;15.65;;;;;;;;;;4968507;28;20050;-57
2022/12/19 14:16:35;;;;;;;34.72;18.35;;;;;;;;;;4963829;28;20085;-56
2022/12/19 14:19:00;;;;;;;40.13;20.52;;;;;;;;;;4982988;28;20054;-55
2022/12/19 14:21:26;;;;;;;41.28;21.23;;;;;;;;;;4984328;28;20045;-57
2022/12/19 14:24:11;;;;;;;40.45;19.55;;;;;;;;;;4986933;28;20511;-56
2022/12/19 14:26:37;;;;;;;35.78;18.90;;;;;;;;;;4970709;28;20031;-55
2022/12/19 14:29:03;;;;;;;39.70;19.30;;;;;;;;;;4966075;28;20027;-56
2022/12/19 14:31:29;;;;;;;35.80;18.98;;;;;;;;;;4970516;28;20026;-58